• Join FlightAware (Why Join?)
  • Login
  • US Flag 
07:21AM EDT


 

Airport Tracker/Info


-or-


 

Live Flight TrackerFlight Track Log ✈ EJA605 ✈ 14-Aug-2014 ✈ KRUQ - KMJX

Flight Track Log - Related Links

Times and Time Zones

All times are in EDT time to prevent confusion due to time zone crossing. See the EJA605 flight status page for this flight to view local times or setup timezone preferences in your user account.

Time Position Orientation Groundspeed Altitude Reporting Facility
EDT Latitude Longitude Course Direction KTS MPH feet Rate Location/Type
10:07AM 35.6675 -80.5061 157° South 175 201 2,800  Level Atlanta Center
10:09AM 35.5828 -80.4614 157° South 256 295 6,400 1,920 Climbing Atlanta Center
10:10AM 35.5175 -80.4489 171° South 256 295 7,800 2,280 Climbing Atlanta Center
10:11AM 35.4531 -80.3853 141° Southeast 285 328 11,300 2,520 Climbing Atlanta Center
10:12AM 35.4089 -80.2981 122° Southeast 297 342 13,200 1,560 Climbing Atlanta Center
10:15AM 35.4544 -80.0161 79° East 337 388 16,900 1,440 Climbing Washington Center
10:16AM 35.4931 -79.8778 71° East 372 428 18,400 1,440 Climbing Washington Center
10:17AM 35.5242 -79.7622 72° East 384 442 19,800 1,500 Climbing Washington Center
10:18AM 35.5644 -79.6239 70° East 390 449 21,500 1,560 Climbing Washington Center
10:19AM 35.6003 -79.4903 72° East 400 460 23,000 1,380 Climbing Washington Center
10:20AM 35.6394 -79.3694 68° East 405 466 24,400 1,500 Climbing Washington Center
10:21AM 35.6961 -79.2289 64° Northeast 411 473 26,000 1,500 Climbing Washington Center
10:22AM 35.7433 -79.1133 63° Northeast 417 480 27,400 1,380 Climbing Washington Center
10:23AM 35.7953 -78.9800 64° Northeast 417 480 28,800 1,380 Climbing Washington Center
10:24AM 35.8467 -78.8489 64° Northeast 422 486 30,300 1,560 Climbing Washington Center
10:25AM 35.8797 -78.7067 74° East 422 486 31,900 1,260 Climbing Washington Center
10:26AM 35.8942 -78.5561 83° East 428 493 32,900 540 Climbing Washington Center
10:27AM 35.9128 -78.3822 82° East 445 512 33,000  Climbing Washington Center
10:28AM 35.9292 -78.2161 83° East 474 545 33,000  Level Washington Center
10:29AM 35.9428 -78.0653 84° East 481 554 33,000  Level Washington Center
10:30AM 35.9608 -77.8861 83° East 481 554 33,000  Level Washington Center
10:31AM 35.9742 -77.7350 84° East 487 560 33,000  Level Washington Center
10:32AM 36.0433 -77.5931 59° Northeast 469 540 33,000  Level Washington Center
10:33AM 36.1247 -77.4642 52° Northeast 469 540 33,000  Level Washington Center
10:34AM 36.2103 -77.3272 52° Northeast 479 551 33,000  Level Washington Center
10:35AM 36.2936 -77.1922 53° Northeast 490 564 33,000 -420 Level Washington Center
10:36AM 36.3847 -77.0678 48° Northeast 490 564 32,200 -960 Descending Washington Center
10:37AM 36.5050 -76.9564 37° Northeast 485 558 31,100 -1,200 Descending Washington Center
10:38AM 36.6147 -76.8522 37° Northeast 485 558 29,800 -1,080 Descending Washington Center
10:39AM 36.7222 -76.7503 37° Northeast 485 558 29,000 -420 Descending Washington Center
10:40AM 36.8294 -76.6481 37° Northeast 485 558 29,000  Level Washington Center
10:41AM 36.9325 -76.5481 38° Northeast 478 550 29,000  Level Washington Center
10:42AM 37.0375 -76.4506 37° Northeast 473 544 29,000  Level Washington Center
10:43AM 37.1406 -76.3500 38° Northeast 473 544 29,000  Level Washington Center
10:44AM 37.2453 -76.2494 37° Northeast 473 544 29,000  Level Washington Center
10:45AM 37.3500 -76.1508 37° Northeast 467 537 29,000  Level Washington Center
10:46AM 37.4589 -76.0550 35° Northeast 467 537 29,000  Level Washington Center
10:47AM 37.5636 -75.9558 37° Northeast 467 537 29,000 -540 Level Washington Center
10:48AM 37.6681 -75.8517 38° Northeast 473 544 28,000 -1,320 Descending Washington Center
10:49AM 37.7767 -75.7417 39° Northeast 478 550 26,500 -1,440 Descending Washington Center
10:50AM 37.8811 -75.6444 36° Northeast 478 550 25,100 -1,320 Descending Washington Center
10:51AM 37.9875 -75.5417 37° Northeast 478 550 23,900 -1,320 Descending Washington Center
10:52AM 38.0981 -75.4467 34° Northeast 483 556 22,500 -1,440 Descending Washington Center
10:53AM 38.2083 -75.3697 29° Northeast 469 540 21,000 -2,280 Descending Washington Center
10:54AM 38.3167 -75.3006 27° Northeast 445 512 18,000 -3,000 Descending Washington Center
10:55AM 38.4167 -75.2367 27° Northeast 419 482 15,100 -3,000 Descending Washington Center
10:56AM 38.5144 -75.1778 25° Northeast 407 468 12,200 -2,040 Descending Washington Center
10:57AM 38.6058 -75.1161 28° Northeast 379 436 11,000 -660 Descending Washington Center
10:58AM 38.6972 -75.0622 25° Northeast 365 420 10,900 -60 Descending Washington Center
10:59AM 38.7908 -74.9978 28° Northeast 360 414 10,900 -540 Level Washington Center
11:00AM 38.8719 -74.9464 26° Northeast 349 402 9,900 -1,260 Descending Washington Center
11:01AM 38.9425 -74.9003 27° Northeast 312 359 8,400 -1,440 Descending Washington Center
11:02AM 39.0089 -74.8597 25° Northeast 279 321 7,000 -780 Descending Washington Center
11:03AM 39.0753 -74.8164 27° Northeast 269 310 6,900 -60 Descending Washington Center
11:04AM 39.1375 -74.7594 35° Northeast 263 303 6,900  Level Washington Center
11:05AM 39.1975 -74.6969 39° Northeast 269 310 6,900  Level Washington Center
11:06AM 39.2553 -74.6294 42° Northeast 275 316 6,900  Level Washington Center
11:07AM 39.3131 -74.5669 40° Northeast 280 322 6,900  Level Washington Center
11:08AM 39.3731 -74.5017 40° Northeast 280 322 6,900 -420 Level Washington Center
11:09AM 39.4328 -74.4361 40° Northeast 280 322 6,100 -840 Descending Washington Center
11:11AM 39.5832 -74.2502 38° Northeast  Level FlightAware Approximate
11:18AM 39.9278 -74.2556 242° Southwest  Level FlightAware Approximate
11:19AM 39.9167 -74.2833 242° Southwest  Level FlightAware Approximate
11:20AM 39.9260 -74.2955 242° Southwest  Level Estimated
11:21AM 39.9260 -74.2955 242° Southwest  Level Estimated
11:22AM 39.9260 -74.2955 242° Southwest  Level Estimated
11:23AM 39.9260 -74.2955 242° Southwest  Level Estimated
11:24AM 39.9260 -74.2955 242° Southwest  Level Estimated
11:25AM 39.9260 -74.2955 242° Southwest  Level Estimated
11:26AM 39.9260 -74.2955 242° Southwest  Level Estimated
11:27AM 39.9260 -74.2955 242° Southwest  Level Estimated
11:28AM 39.9260 -74.2955 242° Southwest  Level Estimated
11:29AM 39.9260 -74.2955 242° Southwest  Level Estimated
11:30AM 39.9260 -74.2955 242° Southwest  Level Estimated
11:31AM 39.9260 -74.2955 242° Southwest  Level Estimated
11:32AM 39.9260 -74.2955 242° Southwest  Level Estimated
11:33AM 39.9260 -74.2955 242° Southwest  Level Estimated
11:34AM 39.9260 -74.2955 242° Southwest  Level Estimated